Time;durP1;ratioP1;P1;durP2;ratioP2;P2;SDS_P1;SDS_P2;PMS_P1;PMS_P2;Temp;Humidity;BMP_temperature;BMP_pressure;BME280_temperature;BME280_humidity;BME280_pressure;Samples;Min_cycle;Max_cycle;Signal;HPM_P1;HPM_P2
2023/10/11 00:01:14;;;;;;;19.93;12.33;;;;;;;10.04;70.72;100613.00;5033599;28;20212;-59
2023/10/11 00:03:52;;;;;;;18.30;11.80;;;;;;;10.04;70.39;100608.72;5029899;28;20841;-59
2023/10/11 00:06:25;;;;;;;19.13;11.30;;;;;;;10.02;70.34;100618.19;5024630;28;20199;-62
2023/10/11 00:08:54;;;;;;;19.13;11.83;;;;;;;9.99;70.58;100610.44;5030279;28;20260;-58
2023/10/11 00:11:27;;;;;;;19.17;11.77;;;;;;;9.94;70.99;100609.56;5033087;28;20214;-59
2023/10/11 00:13:55;;;;;;;19.33;11.90;;;;;;;9.93;71.08;100610.44;5032046;28;20210;-59
2023/10/11 00:16:23;;;;;;;17.13;10.73;;;;;;;9.94;71.48;100617.28;5032867;28;20617;-62
2023/10/11 00:18:55;;;;;;;19.30;11.67;;;;;;;9.94;71.04;100614.72;5031333;28;20211;-59
2023/10/11 00:21:40;;;;;;;19.90;12.00;;;;;;;9.93;71.06;100608.72;5030248;28;20202;-59
2023/10/11 00:24:17;;;;;;;21.50;12.13;;;;;;;9.92;71.59;100603.59;5031808;28;20198;-58
2023/10/11 00:26:49;;;;;;;17.73;11.03;;;;;;;9.90;71.07;100603.59;5023593;28;20214;-59
2023/10/11 00:29:19;;;;;;;18.17;11.13;;;;;;;9.91;70.86;100607.03;5032289;28;20204;-60
2023/10/11 00:31:50;;;;;;;20.07;11.43;;;;;;;9.90;71.08;100597.56;5031249;28;20203;-58
2023/10/11 00:34:19;;;;;;;19.47;11.53;;;;;;;9.90;70.92;100600.13;5031587;28;20217;-59
2023/10/11 00:36:49;;;;;;;16.83;11.03;;;;;;;9.90;70.65;100590.72;5031614;28;20218;-58
2023/10/11 00:39:17;;;;;;;17.60;12.07;;;;;;;9.88;70.96;100595.00;5028054;28;20609;-60
2023/10/11 00:41:48;;;;;;;17.97;11.53;;;;;;;9.87;71.60;100590.72;5031783;28;20697;-59
2023/10/11 00:44:20;;;;;;;17.07;10.50;;;;;;;9.88;71.47;100586.44;5033546;28;20231;-59
2023/10/11 00:46:57;;;;;;;18.33;11.07;;;;;;;9.89;71.26;100590.72;5032078;28;20205;-58
2023/10/11 00:49:34;;;;;;;17.87;10.83;;;;;;;9.89;71.41;100588.13;5026479;28;20733;-59
2023/10/11 00:52:06;;;;;;;19.43;11.67;;;;;;;9.89;71.19;100585.56;5033410;28;20230;-58
2023/10/11 00:54:42;;;;;;;16.10;11.50;;;;;;;9.89;71.82;100590.72;5030301;28;20241;-63
2023/10/11 00:57:15;;;;;;;20.97;11.53;;;;;;;9.88;71.60;100584.72;5028244;28;20194;-63
2023/10/11 00:59:44;;;;;;;19.73;12.23;;;;;;;9.84;71.70;100585.56;5032486;28;20218;-65
2023/10/11 01:02:14;;;;;;;20.00;12.67;;;;;;;9.80;72.33;100583.00;5030370;28;20681;-63
2023/10/11 01:04:42;;;;;;;18.43;12.10;;;;;;;9.76;72.19;100569.28;5031230;28;20617;-64
2023/10/11 01:07:11;;;;;;;20.57;11.67;;;;;;;9.79;72.64;100576.13;5029511;28;20212;-61
2023/10/11 01:09:48;;;;;;;18.53;12.07;;;;;;;9.81;72.67;100574.41;5028400;28;20673;-62
2023/10/11 01:12:16;;;;;;;21.37;13.23;;;;;;;9.85;73.04;100571.84;5030228;28;20649;-59
2023/10/11 01:14:57;;;;;;;21.23;13.27;;;;;;;9.92;73.07;100564.97;5028239;28;20234;-63
2023/10/11 01:17:27;;;;;;;21.73;13.23;;;;;;;9.94;73.73;100555.50;5030752;28;20206;-63
2023/10/11 01:19:55;;;;;;;19.90;13.03;;;;;;;9.99;73.77;100552.97;5027847;28;20238;-62
2023/10/11 01:22:26;;;;;;;20.60;13.03;;;;;;;9.98;74.48;100554.69;5030428;28;20198;-64
2023/10/11 01:24:55;;;;;;;22.13;13.60;;;;;;;9.99;74.72;100547.81;5023609;28;20256;-64
2023/10/11 01:27:30;;;;;;;22.10;14.23;;;;;;;10.01;74.77;100546.94;5032607;28;20206;-64
2023/10/11 01:29:58;;;;;;;19.27;13.00;;;;;;;10.04;74.61;100540.94;5030889;28;20689;-62
2023/10/11 01:32:26;;;;;;;21.77;13.97;;;;;;;10.08;74.36;100534.91;5026774;28;20317;-64
2023/10/11 01:34:54;;;;;;;24.60;14.13;;;;;;;10.10;74.87;100531.47;5029932;28;20226;-62
2023/10/11 01:37:22;;;;;;;25.03;13.90;;;;;;;10.11;74.90;100533.19;5030593;28;20298;-63
2023/10/11 01:39:51;;;;;;;21.60;13.87;;;;;;;10.11;75.45;100525.47;5030946;28;20306;-63
2023/10/11 01:42:19;;;;;;;23.33;14.03;;;;;;;10.12;75.71;100528.91;5028625;28;20207;-62
2023/10/11 01:44:49;;;;;;;23.20;13.83;;;;;;;10.12;75.65;100534.91;5027128;28;20202;-63
2023/10/11 01:47:19;;;;;;;23.93;14.23;;;;;;;10.12;75.55;100532.31;5030500;28;20203;-61
2023/10/11 01:49:47;;;;;;;21.10;13.67;;;;;;;10.15;75.74;100534.91;5031045;28;20657;-63
2023/10/11 01:52:15;;;;;;;23.70;14.10;;;;;;;10.11;76.01;100524.63;5029163;28;20266;-63
2023/10/11 01:54:43;;;;;;;22.30;14.07;;;;;;;10.08;76.34;100527.19;5030993;28;20223;-63
2023/10/11 01:57:13;;;;;;;22.53;13.50;;;;;;;10.07;76.11;100526.34;5028105;28;20213;-64
2023/10/11 01:59:41;;;;;;;23.13;14.00;;;;;;;10.05;76.54;100522.91;5029734;28;20212;-59
2023/10/11 02:02:10;;;;;;;22.67;14.57;;;;;;;10.06;76.60;100528.94;5027758;28;20221;-63
2023/10/11 02:04:40;;;;;;;21.10;13.50;;;;;;;10.03;76.75;100524.63;5030560;28;20201;-60
2023/10/11 02:07:08;;;;;;;25.73;14.97;;;;;;;10.02;76.97;100522.91;5026690;28;20289;-60
2023/10/11 02:09:36;;;;;;;25.17;14.60;;;;;;;10.02;77.30;100514.34;5026743;28;20237;-60
2023/10/11 02:12:09;;;;;;;22.57;14.50;;;;;;;10.00;77.47;100521.19;5027467;28;20272;-59
2023/10/11 02:14:40;;;;;;;22.77;14.60;;;;;;;9.99;77.73;100515.19;5027900;28;20214;-60
2023/10/11 02:17:08;;;;;;;24.60;13.73;;;;;;;10.02;77.68;100511.78;5027824;28;20198;-59
2023/10/11 02:19:36;;;;;;;22.60;14.73;;;;;;;10.05;77.94;100512.63;5025018;28;20712;-59
2023/10/11 02:22:04;;;;;;;22.03;13.33;;;;;;;10.04;77.60;100504.88;5029751;28;20214;-60
2023/10/11 02:24:35;;;;;;;21.53;13.83;;;;;;;10.05;77.40;100510.06;5029565;28;20199;-58
2023/10/11 02:27:06;;;;;;;21.73;13.50;;;;;;;10.05;77.39;100512.63;5024702;28;20210;-60
2023/10/11 02:29:35;;;;;;;20.23;13.50;;;;;;;10.05;77.35;100507.47;5025440;28;20679;-59
2023/10/11 02:32:08;;;;;;;21.10;14.23;;;;;;;10.03;77.45;100509.19;5025982;28;20533;-60
2023/10/11 02:34:36;;;;;;;20.93;12.90;;;;;;;10.04;77.60;100507.47;5029302;28;20289;-61
2023/10/11 02:37:10;;;;;;;20.93;14.43;;;;;;;10.03;77.58;100498.03;5029410;28;20251;-59
2023/10/11 02:39:44;;;;;;;22.57;14.13;;;;;;;9.99;77.88;100497.19;5029182;28;20608;-60
2023/10/11 02:42:19;;;;;;;18.73;12.50;;;;;;;10.00;77.89;100493.75;5027859;28;20202;-60
2023/10/11 02:44:48;;;;;;;20.93;13.73;;;;;;;10.02;77.97;100489.47;5027308;28;20244;-59
2023/10/11 02:47:22;;;;;;;24.00;13.87;;;;;;;10.01;78.06;100490.28;5029893;28;20211;-60
2023/10/11 02:49:53;;;;;;;19.30;14.10;;;;;;;10.03;78.42;100487.72;5027505;28;20207;-61
2023/10/11 02:52:29;;;;;;;19.13;13.40;;;;;;;10.04;78.21;100486.88;5029597;28;20634;-60
2023/10/11 02:54:59;;;;;;;22.03;13.40;;;;;;;10.04;77.80;100482.56;5022348;28;20214;-60
2023/10/11 02:57:27;;;;;;;20.77;13.60;;;;;;;10.02;78.22;100468.84;5027497;28;20276;-61
2023/10/11 02:59:56;;;;;;;20.43;13.77;;;;;;;10.04;78.00;100474.84;5029248;28;20289;-60
2023/10/11 03:02:29;;;;;;;23.10;15.17;;;;;;;10.03;78.33;100478.28;5022209;28;20211;-60
2023/10/11 03:05:01;;;;;;;19.97;14.13;;;;;;;10.03;78.34;100472.28;5028284;28;20236;-60
2023/10/11 03:07:33;;;;;;;24.07;14.53;;;;;;;10.02;78.23;100476.59;5028835;28;20237;-61
2023/10/11 03:10:01;;;;;;;19.90;13.67;;;;;;;9.98;78.56;100480.03;5029776;28;20207;-60
2023/10/11 03:12:31;;;;;;;22.27;13.80;;;;;;;9.96;78.61;100475.72;5027280;28;20203;-60
2023/10/11 03:15:08;;;;;;;23.70;14.80;;;;;;;9.96;78.94;100471.44;5028085;28;20240;-58
2023/10/11 03:17:41;;;;;;;22.43;14.17;;;;;;;9.98;78.54;100468.84;5029391;28;20251;-59
2023/10/11 03:20:31;;;;;;;23.50;13.93;;;;;;;9.95;78.57;100464.59;5025163;28;20198;-59
2023/10/11 03:23:03;;;;;;;21.03;12.87;;;;;;;9.99;78.84;100466.28;5024315;28;20211;-61
2023/10/11 03:25:37;;;;;;;19.53;13.93;;;;;;;9.98;78.70;100464.59;5023116;28;20253;-60
2023/10/11 03:28:06;;;;;;;25.27;13.70;;;;;;;10.01;79.23;100461.97;5021796;28;20725;-62
2023/10/11 03:30:35;;;;;;;19.57;13.43;;;;;;;10.02;79.49;100455.13;5026735;28;20211;-60
2023/10/11 03:33:06;;;;;;;22.60;14.27;;;;;;;10.03;79.25;100447.41;5028531;28;20289;-60
2023/10/11 03:35:38;;;;;;;20.10;13.47;;;;;;;10.06;79.37;100451.69;5026460;28;20218;-62
2023/10/11 03:38:17;;;;;;;19.90;13.83;;;;;;;10.09;79.02;100443.97;5030337;28;20236;-59
2023/10/11 03:41:11;;;;;;;22.87;13.93;;;;;;;10.09;79.04;100446.53;5028088;28;20729;-61
2023/10/11 03:43:40;;;;;;;22.17;13.17;;;;;;;10.02;79.60;100439.69;5025918;28;20701;-59
2023/10/11 03:46:10;;;;;;;21.50;14.07;;;;;;;10.03;79.67;100444.81;5029363;28;20285;-61
2023/10/11 03:48:44;;;;;;;21.73;14.57;;;;;;;10.02;79.91;100448.25;5028832;28;20712;-60
2023/10/11 03:51:13;;;;;;;22.63;14.33;;;;;;;10.03;79.77;100431.94;5025262;28;20672;-60
2023/10/11 03:53:47;;;;;;;21.33;14.30;;;;;;;10.05;80.45;100435.38;5030013;28;20238;-61
2023/10/11 03:56:17;;;;;;;22.23;14.57;;;;;;;10.07;80.26;100433.66;5026408;28;20273;-60
2023/10/11 03:58:45;;;;;;;23.67;14.43;;;;;;;10.07;80.17;100436.22;5024126;28;20662;-60
2023/10/11 04:01:14;;;;;;;20.10;14.07;;;;;;;10.09;80.38;100431.94;5029248;28;20202;-60
2023/10/11 04:03:44;;;;;;;20.20;13.57;;;;;;;10.12;80.21;100431.91;5029729;28;20224;-60
2023/10/11 04:06:15;;;;;;;21.73;14.70;;;;;;;10.12;80.18;100424.19;5029426;28;20207;-59
2023/10/11 04:08:47;;;;;;;21.67;13.87;;;;;;;10.11;80.21;100412.19;5029494;28;20210;-60
2023/10/11 04:11:18;;;;;;;18.63;13.30;;;;;;;10.14;80.66;100414.75;5028527;28;20627;-59
2023/10/11 04:13:49;;;;;;;21.47;14.57;;;;;;;10.16;80.88;100415.59;5027029;28;20222;-59
2023/10/11 04:16:17;;;;;;;22.77;14.33;;;;;;;10.16;80.79;100417.28;5026402;28;20226;-63
2023/10/11 04:18:52;;;;;;;21.33;13.97;;;;;;;10.14;80.74;100404.44;5029462;28;20207;-60
2023/10/11 04:21:53;;;;;;;25.23;15.63;;;;;;;10.18;80.95;100412.16;5027849;28;20569;-59
2023/10/11 04:24:21;;;;;;;22.73;15.17;;;;;;;10.20;80.68;100415.56;5028314;28;20602;-61
2023/10/11 04:26:54;;;;;;;23.27;15.23;;;;;;;10.21;81.08;100412.16;5027100;28;20257;-61
2023/10/11 04:29:23;;;;;;;21.90;14.80;;;;;;;10.23;81.14;100413.00;5029962;28;20264;-59
2023/10/11 04:32:09;;;;;;;19.90;14.10;;;;;;;10.25;81.09;100411.28;5030204;28;20203;-60
2023/10/11 04:34:47;;;;;;;22.93;14.93;;;;;;;10.25;81.16;100398.41;5028035;28;20199;-60
2023/10/11 04:37:27;;;;;;;22.60;13.87;;;;;;;10.25;81.02;100404.44;5027644;28;20203;-58
2023/10/11 04:40:14;;;;;;;24.47;15.60;;;;;;;10.24;80.98;100396.69;5029747;28;20213;-59
2023/10/11 04:42:42;;;;;;;19.83;14.03;;;;;;;10.22;81.40;100396.69;5030923;28;20230;-59
2023/10/11 04:45:21;;;;;;;23.33;15.43;;;;;;;10.23;81.79;100393.25;5030796;28;20205;-59
2023/10/11 04:47:52;;;;;;;24.03;15.30;;;;;;;10.29;81.69;100376.94;5038396;28;20731;-59
2023/10/11 04:50:30;;;;;;;23.73;14.67;;;;;;;10.31;81.56;100377.78;5030150;28;20672;-58
2023/10/11 04:52:58;;;;;;;24.27;15.23;;;;;;;10.33;81.61;100373.50;5039479;28;20272;-59
2023/10/11 04:55:34;;;;;;;23.67;14.67;;;;;;;10.35;81.62;100382.06;5029945;28;20226;-59
2023/10/11 04:58:04;;;;;;;25.57;14.03;;;;;;;10.33;81.46;100383.78;5033400;28;20650;-59
2023/10/11 05:00:43;;;;;;;20.70;14.07;;;;;;;10.30;81.49;100379.50;5029034;28;20199;-58
2023/10/11 05:03:12;;;;;;;23.30;15.43;;;;;;;10.27;81.73;100378.66;5029106;28;20206;-61
2023/10/11 05:05:58;;;;;;;22.10;14.73;;;;;;;10.26;82.17;100384.69;5028511;28;20818;-59
2023/10/11 05:08:51;;;;;;;22.83;14.40;;;;;;;10.26;82.32;100371.81;5030498;28;20629;-59
2023/10/11 05:11:25;;;;;;;24.80;13.77;;;;;;;10.26;82.30;100374.38;5027514;28;20215;-59
2023/10/11 05:14:07;;;;;;;21.93;14.97;;;;;;;10.30;82.65;100373.50;5031991;28;20642;-61
2023/10/11 05:16:37;;;;;;;22.60;14.47;;;;;;;10.34;82.64;100372.63;5024291;28;20333;-59
2023/10/11 05:19:06;;;;;;;25.10;15.23;;;;;;;10.39;82.24;100373.47;5032295;28;20870;-63
2023/10/11 05:21:39;;;;;;;21.63;14.73;;;;;;;10.40;83.02;100364.88;5032522;28;20710;-59
2023/10/11 05:24:33;;;;;;;23.17;14.57;;;;;;;10.44;82.58;100366.56;5031790;28;20210;-62
2023/10/11 05:27:11;;;;;;;22.33;15.80;;;;;;;10.50;82.49;100379.41;5024080;28;20293;-60
2023/10/11 05:30:05;;;;;;;23.07;14.07;;;;;;;10.56;82.64;100376.78;5026684;28;20591;-59
2023/10/11 05:32:41;;;;;;;22.93;14.60;;;;;;;10.62;82.18;100373.31;5022170;28;20628;-59
2023/10/11 05:35:19;;;;;;;26.40;15.20;;;;;;;10.67;82.26;100374.13;5025980;28;20569;-59
2023/10/11 05:51:56;;;;;;;22.43;15.07;;;;;;;11.00;81.73;100352.41;5029645;28;20248;-61
2023/10/11 05:54:34;;;;;;;26.10;15.00;;;;;;;11.04;81.52;100343.78;5030267;28;20207;-59
2023/10/11 05:57:03;;;;;;;20.90;13.93;;;;;;;11.05;81.55;100345.50;5027740;28;20215;-59
2023/10/11 05:59:34;;;;;;;20.10;14.40;;;;;;;11.15;81.42;100347.97;5029687;28;20202;-60
2023/10/11 06:02:07;;;;;;;24.87;15.00;;;;;;;11.19;81.15;100344.50;5033634;28;20203;-59
2023/10/11 06:04:39;;;;;;;24.50;15.23;;;;;;;11.28;81.33;100345.28;5029403;28;20202;-60
2023/10/11 06:07:08;;;;;;;27.67;15.20;;;;;;;11.38;80.64;100343.47;5031888;28;20602;-59
2023/10/11 06:09:43;;;;;;;22.13;14.87;;;;;;;11.50;80.57;100342.50;5027555;28;20198;-60
2023/10/11 06:12:22;;;;;;;21.20;14.00;;;;;;;11.64;80.25;100347.50;5030927;28;20209;-60
2023/10/11 06:14:51;;;;;;;22.57;14.23;;;;;;;11.79;79.59;100347.34;5031686;28;20210;-60
2023/10/11 06:17:22;;;;;;;21.90;14.30;;;;;;;11.92;79.15;100345.47;5031088;28;20219;-60
2023/10/11 06:19:54;;;;;;;20.20;14.73;;;;;;;12.08;78.87;100331.53;5025892;28;20226;-61
2023/10/11 06:22:28;;;;;;;20.77;14.37;;;;;;;12.22;78.01;100336.47;5037170;28;20238;-61
2023/10/11 06:24:58;;;;;;;19.73;13.87;;;;;;;12.32;77.03;100340.66;5031677;28;20201;-61
2023/10/11 06:30:12;;;;;;;20.63;14.03;;;;;;;12.51;76.31;100344.66;5026895;28;20206;-60
2023/10/11 06:32:42;;;;;;;23.53;14.47;;;;;;;12.58;75.91;100330.78;5029058;28;20206;-60
2023/10/11 06:35:23;;;;;;;20.27;14.10;;;;;;;12.61;75.79;100332.47;5024376;28;20199;-61
2023/10/11 06:37:52;;;;;;;22.97;14.40;;;;;;;12.62;75.42;100333.31;5028294;28;20225;-60
2023/10/11 06:40:38;;;;;;;20.40;14.77;;;;;;;12.56;75.34;100329.97;5029688;28;20210;-61
2023/10/11 06:43:06;;;;;;;22.27;14.17;;;;;;;12.65;75.70;100336.72;5031117;28;20210;-61
2023/10/11 06:45:35;;;;;;;20.00;13.10;;;;;;;12.76;75.85;100332.22;5028301;28;20776;-59
2023/10/11 06:48:07;;;;;;;18.20;14.40;;;;;;;12.92;75.72;100332.81;5036908;28;20711;-61
2023/10/11 06:50:39;;;;;;;22.40;14.67;;;;;;;13.02;74.89;100318.88;5030092;28;20297;-60
2023/10/11 06:53:08;;;;;;;21.07;14.43;;;;;;;13.02;73.89;100320.59;5030116;28;20309;-59
2023/10/11 06:55:39;;;;;;;18.93;14.47;;;;;;;12.97;nan;100314.66;5028214;28;20222;-59
2023/10/11 06:58:15;;;;;;;21.30;13.63;;;;;;;12.98;74.27;100312.03;5021298;28;20221;-61
2023/10/11 07:00:46;;;;;;;23.60;14.60;;;;;;;13.09;74.79;100304.09;5030436;28;20265;-60
2023/10/11 07:03:26;;;;;;;21.73;14.70;;;;;;;13.27;74.80;100298.63;5031889;28;20220;-61
2023/10/11 07:05:59;;;;;;;18.87;13.60;;;;;;;13.47;74.34;100300.81;5033098;28;20213;-57
2023/10/11 07:08:34;;;;;;;22.07;14.27;;;;;;;13.70;73.64;100307.31;5028069;28;20665;-59
2023/10/11 07:11:16;;;;;;;18.07;13.20;;;;;;;13.88;72.37;100298.28;5027530;28;20213;-59
2023/10/11 07:13:54;;;;;;;24.43;13.83;;;;;;;14.02;72.49;100298.84;5022950;28;20639;-57
2023/10/11 07:16:27;;;;;;;19.13;13.33;;;;;;;14.19;71.72;100296.75;5029713;28;20619;-58
2023/10/11 07:18:58;;;;;;;20.33;14.17;;;;;;;14.26;70.68;100290.53;5029169;28;20256;-58
2023/10/11 07:21:41;;;;;;;19.90;13.17;;;;;;;14.33;70.46;100293.84;5030920;28;20211;-59
2023/10/11 07:24:31;;;;;;;19.43;14.17;;;;;;;14.41;70.44;100288.47;5030821;28;20214;-62
2023/10/11 07:27:09;;;;;;;28.47;14.63;;;;;;;14.49;70.22;100279.66;5020066;28;20231;-69
2023/10/11 07:29:37;;;;;;;21.47;14.60;;;;;;;14.67;71.36;100283.53;5031160;28;20206;-65
2023/10/11 07:32:09;;;;;;;21.43;13.77;;;;;;;15.08;71.65;100278.19;5030162;28;20206;-63
2023/10/11 07:34:41;;;;;;;20.47;14.13;;;;;;;15.73;70.03;100267.78;5027307;28;20386;-61
2023/10/11 07:37:11;;;;;;;21.03;13.23;;;;;;;16.25;67.96;100273.16;5032486;28;20218;-59
2023/10/11 07:39:46;;;;;;;17.52;12.73;;;;;;;16.96;67.16;100267.34;5031473;28;20293;-68
2023/10/11 07:42:21;;;;;;;19.80;13.52;;;;;;;17.79;62.67;100272.25;5031091;28;20273;-69
2023/10/11 07:44:51;;;;;;;18.92;13.50;;;;;;;18.21;60.00;100264.50;5030617;28;20213;-68
2023/10/11 07:47:25;;;;;;;16.70;13.60;;;;;;;17.85;58.14;100261.56;5034940;28;20554;-65
2023/10/11 07:49:54;;;;;;;17.58;13.38;;;;;;;17.75;60.20;100255.88;5034574;28;20202;-66
2023/10/11 07:52:23;;;;;;;18.30;13.32;;;;;;;17.91;59.65;100253.50;5031478;28;20234;-66
2023/10/11 07:54:52;;;;;;;18.63;13.00;;;;;;;18.09;59.33;100244.13;5044961;28;20240;-67
2023/10/11 07:57:22;;;;;;;15.13;12.15;;;;;;;18.03;58.91;100241.75;5033394;28;20724;-66
2023/10/11 07:59:51;;;;;;;17.08;12.30;;;;;;;17.75;58.93;100235.00;5030632;28;20204;-68
2023/10/11 08:02:32;;;;;;;17.95;12.75;;;;;;;17.53;60.15;100236.69;5033743;28;20215;-66
2023/10/11 08:05:00;;;;;;;18.20;13.65;;;;;;;17.25;61.33;100229.88;5032005;28;20203;-67
2023/10/11 08:07:29;;;;;;;18.75;13.68;;;;;;;17.11;62.38;100226.91;5034322;28;20734;-64
2023/10/11 08:09:57;;;;;;;16.75;12.48;;;;;;;17.04;63.00;100233.25;5037229;28;20211;-64
2023/10/11 08:12:27;;;;;;;17.40;12.57;;;;;;;17.01;62.86;100233.34;5033330;28;20199;-66
2023/10/11 08:14:56;;;;;;;17.42;12.90;;;;;;;17.00;63.48;100226.44;5035821;28;20206;-66
2023/10/11 08:17:29;;;;;;;16.30;12.20;;;;;;;17.08;63.96;100227.88;5034596;28;20328;-67
2023/10/11 08:20:15;;;;;;;20.88;13.07;;;;;;;17.24;63.97;100230.78;5025687;28;20605;-66
2023/10/11 08:22:46;;;;;;;15.57;12.57;;;;;;;17.37;63.71;100215.56;5030386;28;20723;-66
2023/10/11 08:25:25;;;;;;;17.38;12.63;;;;;;;17.48;63.12;100215.16;5031195;28;20213;-66
2023/10/11 08:28:10;;;;;;;17.83;12.05;;;;;;;17.46;62.15;100212.63;5030599;28;20207;-63
2023/10/11 08:30:39;;;;;;;17.17;12.45;;;;;;;17.30;63.09;100209.72;5032405;28;20213;-67
2023/10/11 08:33:08;;;;;;;18.23;12.38;;;;;;;17.21;63.50;100201.41;5031214;28;20203;-66
2023/10/11 08:35:36;;;;;;;16.40;12.27;;;;;;;17.09;64.09;100193.13;5037532;28;20234;-65
2023/10/11 08:38:05;;;;;;;15.88;12.63;;;;;;;17.03;64.90;100197.72;5039982;28;20276;-66
2023/10/11 08:40:36;;;;;;;13.95;11.65;;;;;;;17.02;65.19;100193.41;5035537;28;20203;-65
2023/10/11 08:43:09;;;;;;;15.43;12.32;;;;;;;17.13;65.60;100188.66;5034072;28;20206;-64
2023/10/11 08:45:48;;;;;;;17.33;11.80;;;;;;;17.30;65.33;100175.84;5034777;28;20564;-65
2023/10/11 08:48:17;;;;;;;17.35;12.18;;;;;;;17.50;65.09;100179.50;5033010;28;20198;-65
2023/10/11 08:50:53;;;;;;;16.63;12.27;;;;;;;17.61;64.36;100169.50;5036657;28;20199;-67
2023/10/11 08:53:25;;;;;;;15.55;11.63;;;;;;;17.62;64.20;100168.59;5033966;28;20666;-64
2023/10/11 08:55:56;;;;;;;15.77;11.27;;;;;;;17.66;64.23;100171.94;5031605;28;20202;-66
2023/10/11 08:58:28;;;;;;;16.58;11.88;;;;;;;17.62;64.37;100168.59;5026846;28;20867;-65
2023/10/11 09:00:58;;;;;;;19.55;11.75;;;;;;;17.60;64.54;100175.63;5033076;28;20281;-62
2023/10/11 09:03:31;;;;;;;16.92;11.43;;;;;;;17.54;64.75;100163.69;5032357;28;20619;-65
2023/10/11 09:06:00;;;;;;;16.75;11.57;;;;;;;17.53;65.36;100158.53;5025498;28;20206;-64
2023/10/11 09:08:32;;;;;;;16.48;11.70;;;;;;;17.51;65.20;100163.78;5027851;28;20215;-65
2023/10/11 09:11:12;;;;;;;15.55;11.02;;;;;;;17.45;65.65;100168.38;5032107;28;20539;-65
2023/10/11 09:13:42;;;;;;;15.07;11.75;;;;;;;17.45;65.95;100157.97;5030796;28;20325;-64
2023/10/11 09:16:34;;;;;;;15.57;11.23;;;;;;;17.44;66.03;100156.28;5029347;28;20206;-59
2023/10/11 09:19:06;;;;;;;18.63;11.13;;;;;;;17.47;66.12;100156.16;5025970;28;20226;-60
2023/10/11 09:21:37;;;;;;;15.82;11.18;;;;;;;17.53;66.16;100156.78;5036175;28;20205;-62
2023/10/11 09:24:24;;;;;;;13.38;10.80;;;;;;;17.57;66.10;100154.91;5031630;28;20611;-60
2023/10/11 09:27:12;;;;;;;16.92;11.23;;;;;;;17.62;66.19;100152.97;5034352;28;20198;-59
2023/10/11 09:29:43;;;;;;;16.85;10.98;;;;;;;17.67;66.15;100145.78;5029483;28;20206;-68
2023/10/11 09:32:13;;;;;;;14.10;9.77;;;;;;;17.73;66.09;100149.94;5032482;28;20298;-65
2023/10/11 09:34:42;;;;;;;16.00;10.57;;;;;;;17.69;65.74;100141.38;5026691;28;20644;-65
2023/10/11 09:37:11;;;;;;;15.00;10.75;;;;;;;17.70;66.14;100140.47;5030824;28;20770;-61
2023/10/11 09:39:39;;;;;;;14.25;10.23;;;;;;;17.71;66.06;100134.38;5029674;28;20219;-68
2023/10/11 09:42:11;;;;;;;15.43;10.13;;;;;;;17.76;66.16;100129.00;5032441;28;20637;-66
2023/10/11 09:44:43;;;;;;;14.32;10.00;;;;;;;17.79;66.25;100131.50;5032635;28;20210;-66
2023/10/11 09:47:17;;;;;;;17.70;11.50;;;;;;;17.76;66.16;100122.03;5031761;28;20207;-65
2023/10/11 09:49:47;;;;;;;13.27;10.65;;;;;;;17.82;66.54;100133.94;5032083;28;20315;-65
2023/10/11 09:52:16;;;;;;;15.27;9.90;;;;;;;17.90;66.46;100131.91;5031754;28;20425;-63
2023/10/11 09:54:50;;;;;;;12.65;9.90;;;;;;;17.99;66.22;100131.53;5031895;28;20210;-68
2023/10/11 09:57:26;;;;;;;17.67;10.75;;;;;;;18.10;66.15;100125.88;5024578;28;20202;-65
2023/10/11 10:00:08;;;;;;;12.82;9.93;;;;;;;18.19;65.67;100128.09;5033720;28;20212;-71
2023/10/11 10:02:44;;;;;;;12.35;9.80;;;;;;;18.26;65.43;100120.84;5029427;28;20245;-67
2023/10/11 10:05:13;;;;;;;17.35;9.98;;;;;;;18.34;65.28;100113.56;5031472;28;20293;-65
2023/10/11 10:07:44;;;;;;;12.45;9.35;;;;;;;18.45;65.18;100111.34;5031913;28;20592;-64
2023/10/11 10:10:15;;;;;;;13.20;8.85;;;;;;;18.56;64.66;100090.88;5031860;28;20203;-62
2023/10/11 10:12:56;;;;;;;16.27;9.35;;;;;;;18.57;63.56;100099.53;5031949;28;20284;-68
2023/10/11 10:15:28;;;;;;;11.52;8.40;;;;;;;18.63;63.56;100095.78;5025567;28;20198;-68
2023/10/11 10:18:20;;;;;;;13.35;8.65;;;;;;;18.67;63.78;100085.19;5030731;28;20268;-68
2023/10/11 10:21:01;;;;;;;13.93;8.32;;;;;;;18.73;63.43;100095.34;5031606;28;20203;-70
2023/10/11 10:23:32;;;;;;;11.85;8.27;;;;;;;18.77;63.41;100090.84;5032225;28;20662;-65
2023/10/11 10:26:41;;;;;;;13.82;7.95;;;;;;;18.82;63.13;100084.50;5036257;28;20210;-64
2023/10/11 10:29:12;;;;;;;12.95;7.78;;;;;;;18.89;62.83;100079.00;5031662;28;20194;-61
2023/10/11 10:32:05;;;;;;;11.40;7.20;;;;;;;18.94;62.72;100071.81;5035213;28;20214;-63
2023/10/11 10:34:34;;;;;;;12.00;7.85;;;;;;;18.94;62.45;100069.22;5027324;28;20203;-62
2023/10/11 10:37:13;;;;;;;12.05;7.57;;;;;;;18.94;62.69;100062.22;5031300;28;20215;-66
2023/10/11 10:40:17;;;;;;;14.35;8.00;;;;;;;18.95;62.77;100061.28;5027276;28;20295;-63
2023/10/11 10:43:27;;;;;;;11.57;7.35;;;;;;;18.96;62.78;100049.06;5030321;28;20650;-63
2023/10/11 10:45:59;;;;;;;8.07;6.20;;;;;;;18.98;62.43;100052.47;5020956;28;20214;-63
2023/10/11 10:48:31;;;;;;;10.50;7.35;;;;;;;19.04;62.22;100050.44;5021213;28;20223;-61
2023/10/11 10:51:04;;;;;;;13.48;7.18;;;;;;;19.11;61.94;100057.97;5027495;28;20290;-61
2023/10/11 10:53:39;;;;;;;11.23;6.28;;;;;;;19.19;62.05;100051.50;5030926;28;20556;-61
2023/10/11 10:56:19;;;;;;;10.50;6.88;;;;;;;19.23;61.80;100047.81;5028100;28;20571;-61
2023/10/11 10:58:47;;;;;;;10.02;6.53;;;;;;;19.27;61.96;100049.34;5030478;28;20264;-62
2023/10/11 11:01:26;;;;;;;10.18;6.38;;;;;;;19.29;61.64;100057.09;5027906;28;20613;-62
2023/10/11 11:03:58;;;;;;;8.60;6.28;;;;;;;19.27;61.77;100064.19;5021201;28;20669;-61
2023/10/11 11:06:36;;;;;;;8.98;6.40;;;;;;;19.26;61.42;100058.13;5032679;28;20645;-61
2023/10/11 11:09:13;;;;;;;8.05;6.38;;;;;;;19.28;61.65;100073.72;5029627;28;20680;-65
2023/10/11 11:11:40;;;;;;;11.88;6.43;;;;;;;19.28;61.19;100058.03;5032691;28;20238;-61
2023/10/11 11:14:10;;;;;;;10.52;6.85;;;;;;;19.29;61.13;100055.38;5029411;28;20206;-61
2023/10/11 11:16:39;;;;;;;8.20;6.13;;;;;;;19.35;61.17;100055.97;5028218;28;20206;-62
2023/10/11 11:19:16;;;;;;;10.23;5.95;;;;;;;19.40;61.10;100051.38;5031835;28;20222;-62
2023/10/11 11:21:45;;;;;;;8.90;6.10;;;;;;;19.40;60.50;100049.59;5038641;28;20202;-61
2023/10/11 11:24:19;;;;;;;9.40;5.80;;;;;;;19.39;60.26;100034.84;5031575;28;20199;-63
2023/10/11 11:26:46;;;;;;;9.43;5.63;;;;;;;19.41;60.25;100040.03;5029937;28;20684;-64
2023/10/11 11:29:31;;;;;;;11.18;5.47;;;;;;;19.41;60.32;100034.78;5029443;28;20252;-63
2023/10/11 11:32:14;;;;;;;10.02;5.97;;;;;;;19.41;60.44;100030.41;5030385;28;20202;-64
2023/10/11 11:35:02;;;;;;;9.13;5.85;;;;;;;19.42;60.32;100036.47;5029532;28;20206;-63
2023/10/11 11:37:34;;;;;;;10.57;5.47;;;;;;;19.44;60.56;100039.84;5030663;28;20206;-65
2023/10/11 11:42:47;;;;;;;7.78;5.75;;;;;;;19.52;60.18;100019.44;5033803;28;20272;-64
2023/10/11 11:45:15;;;;;;;9.90;5.88;;;;;;;19.59;59.93;100018.22;5034767;28;20673;-63
2023/10/11 11:47:55;;;;;;;12.27;6.15;;;;;;;19.66;59.74;100019.66;5033729;28;20211;-63
2023/10/11 11:50:25;;;;;;;10.80;5.70;;;;;;;19.70;59.45;100015.94;5034649;28;20688;-63
2023/10/11 11:52:57;;;;;;;10.02;5.75;;;;;;;19.71;59.54;100008.94;5033739;28;20242;-63
2023/10/11 11:55:26;;;;;;;8.10;5.30;;;;;;;19.72;59.72;100008.84;5034272;28;20242;-65
2023/10/11 11:57:53;;;;;;;10.10;6.10;;;;;;;19.72;59.51;100008.03;5034876;28;20738;-62
2023/10/11 12:00:35;;;;;;;7.35;5.28;;;;;;;19.70;59.54;100000.28;5034352;28;20225;-63